General Lavalle, Argentina
Current Conditions -  °F | °C
As of 2:00 AM on Sunday 26 Oct 2014 (Local Time) from SAZM Reporting Station
Clear Clear  
Wind Chill: 17°   Ceiling: Unl
Heat Index: 17°   Visibility: 4mi
Dew Point: 15°   Wind: 5mph
Humidity: 88%   Direction: 50°NE
Pressure: 29.83"   Gusts: NA
Location:  36.4°S, 56.97°W
Report Text: SAZM 260500Z 05004KT 7000 NSC 17/15 Q1010
Loading
Personal Weather Stations






























Interactive Weather Map
Tropical Storm Tracking
New forecast layout! Learn more

10-Day Weather Forecast

Advertisements
Track Severe Weather on mobile